Terminal Aerodrome Forecast
Issued by NWS

Home | Current Version | Previous Version | Text Only | Print | Product List | Glossary On
Versions: 1 2 3 4 5 6 7 8 9 10 11 12 13 14 15 16 17 18 19
000
FTUS45 KRIW 231728
TAFPNA
TAF
KPNA 231728Z 2318/2418 31014G22KT P6SM SCT040 BKN050
     FM240200 30007KT P6SM VCSH BKN035
     FM240900 35005KT 6SM -SN SCT008 OVC022
     FM241400 03005KT P6SM VCSH BKN028
      AMD LTD TO CLD VIS AND WIND=

USA.gov is the U.S. government's official web portal to all federal, state and local government web resources and services.